sensor_id;sensor_type;location;lat;lon;timestamp;P1;durP1;ratioP1;P2;durP2;ratioP2
58137;SDS011;43955;47.362;18.930;2024-03-22T00:02:08;28.75;;;13.45;;
58137;SDS011;43955;47.362;18.930;2024-03-22T00:04:36;28.83;;;12.50;;
58137;SDS011;43955;47.362;18.930;2024-03-22T00:07:02;29.60;;;13.57;;
58137;SDS011;43955;47.362;18.930;2024-03-22T00:09:28;30.35;;;13.55;;
58137;SDS011;43955;47.362;18.930;2024-03-22T00:11:55;27.27;;;12.60;;
58137;SDS011;43955;47.362;18.930;2024-03-22T00:14:21;27.55;;;12.55;;
58137;SDS011;43955;47.362;18.930;2024-03-22T00:16:47;27.15;;;12.48;;
58137;SDS011;43955;47.362;18.930;2024-03-22T00:19:14;29.52;;;13.00;;
58137;SDS011;43955;47.362;18.930;2024-03-22T00:21:40;26.08;;;12.13;;
58137;SDS011;43955;47.362;18.930;2024-03-22T00:24:06;28.20;;;13.43;;
58137;SDS011;43955;47.362;18.930;2024-03-22T00:26:33;28.70;;;13.55;;
58137;SDS011;43955;47.362;18.930;2024-03-22T00:28:59;29.15;;;13.00;;
58137;SDS011;43955;47.362;18.930;2024-03-22T00:31:25;23.87;;;13.32;;
58137;SDS011;43955;47.362;18.930;2024-03-22T00:33:52;31.02;;;13.52;;
58137;SDS011;43955;47.362;18.930;2024-03-22T00:36:18;30.15;;;14.48;;
58137;SDS011;43955;47.362;18.930;2024-03-22T00:38:44;27.87;;;12.85;;
58137;SDS011;43955;47.362;18.930;2024-03-22T00:41:10;27.87;;;13.23;;
58137;SDS011;43955;47.362;18.930;2024-03-22T00:43:36;23.08;;;12.57;;
58137;SDS011;43955;47.362;18.930;2024-03-22T00:46:02;26.87;;;13.35;;
58137;SDS011;43955;47.362;18.930;2024-03-22T00:48:29;26.60;;;13.27;;
58137;SDS011;43955;47.362;18.930;2024-03-22T00:50:55;28.00;;;12.93;;
58137;SDS011;43955;47.362;18.930;2024-03-22T00:53:21;25.45;;;12.73;;
58137;SDS011;43955;47.362;18.930;2024-03-22T00:55:48;32.75;;;13.40;;
58137;SDS011;43955;47.362;18.930;2024-03-22T00:58:17;27.33;;;14.15;;
58137;SDS011;43955;47.362;18.930;2024-03-22T01:00:45;27.40;;;12.98;;
58137;SDS011;43955;47.362;18.930;2024-03-22T01:03:12;25.50;;;13.15;;
58137;SDS011;43955;47.362;18.930;2024-03-22T01:05:38;22.92;;;12.73;;
58137;SDS011;43955;47.362;18.930;2024-03-22T01:08:05;28.67;;;13.93;;
58137;SDS011;43955;47.362;18.930;2024-03-22T01:10:32;26.92;;;12.40;;
58137;SDS011;43955;47.362;18.930;2024-03-22T01:13:00;24.05;;;12.55;;
58137;SDS011;43955;47.362;18.930;2024-03-22T01:15:26;25.48;;;11.85;;
58137;SDS011;43955;47.362;18.930;2024-03-22T01:17:53;25.25;;;11.65;;
58137;SDS011;43955;47.362;18.930;2024-03-22T01:20:19;23.42;;;11.57;;
58137;SDS011;43955;47.362;18.930;2024-03-22T01:22:45;23.62;;;11.65;;
58137;SDS011;43955;47.362;18.930;2024-03-22T01:25:12;26.20;;;11.73;;
58137;SDS011;43955;47.362;18.930;2024-03-22T01:27:38;23.90;;;11.95;;
58137;SDS011;43955;47.362;18.930;2024-03-22T01:30:06;28.02;;;12.40;;
58137;SDS011;43955;47.362;18.930;2024-03-22T01:32:32;26.58;;;11.35;;
58137;SDS011;43955;47.362;18.930;2024-03-22T01:34:58;21.30;;;11.52;;
58137;SDS011;43955;47.362;18.930;2024-03-22T01:37:24;28.02;;;12.27;;
58137;SDS011;43955;47.362;18.930;2024-03-22T01:39:51;28.02;;;11.15;;
58137;SDS011;43955;47.362;18.930;2024-03-22T01:42:17;23.65;;;11.15;;
58137;SDS011;43955;47.362;18.930;2024-03-22T01:44:44;23.62;;;10.60;;
58137;SDS011;43955;47.362;18.930;2024-03-22T01:47:10;25.50;;;11.43;;
58137;SDS011;43955;47.362;18.930;2024-03-22T01:49:36;25.58;;;11.48;;
58137;SDS011;43955;47.362;18.930;2024-03-22T01:52:03;21.12;;;10.75;;
58137;SDS011;43955;47.362;18.930;2024-03-22T01:54:29;22.33;;;11.57;;
58137;SDS011;43955;47.362;18.930;2024-03-22T01:56:56;24.83;;;10.75;;
58137;SDS011;43955;47.362;18.930;2024-03-22T01:59:22;25.25;;;11.18;;
58137;SDS011;43955;47.362;18.930;2024-03-22T02:01:48;28.50;;;12.07;;
58137;SDS011;43955;47.362;18.930;2024-03-22T02:04:15;26.25;;;11.23;;
58137;SDS011;43955;47.362;18.930;2024-03-22T02:06:41;23.98;;;11.65;;
58137;SDS011;43955;47.362;18.930;2024-03-22T02:09:07;24.00;;;11.95;;
58137;SDS011;43955;47.362;18.930;2024-03-22T02:11:36;26.17;;;11.25;;
58137;SDS011;43955;47.362;18.930;2024-03-22T02:14:03;21.42;;;10.38;;
58137;SDS011;43955;47.362;18.930;2024-03-22T02:16:29;27.73;;;11.00;;
58137;SDS011;43955;47.362;18.930;2024-03-22T02:18:56;31.05;;;11.73;;
58137;SDS011;43955;47.362;18.930;2024-03-22T02:21:24;19.17;;;10.02;;
58137;SDS011;43955;47.362;18.930;2024-03-22T02:23:50;21.87;;;11.40;;
58137;SDS011;43955;47.362;18.930;2024-03-22T02:26:18;20.35;;;10.52;;
58137;SDS011;43955;47.362;18.930;2024-03-22T02:28:44;22.75;;;10.57;;
58137;SDS011;43955;47.362;18.930;2024-03-22T02:31:10;18.80;;;9.75;;
58137;SDS011;43955;47.362;18.930;2024-03-22T02:33:37;19.08;;;10.18;;
58137;SDS011;43955;47.362;18.930;2024-03-22T02:36:03;27.65;;;10.88;;
58137;SDS011;43955;47.362;18.930;2024-03-22T02:38:29;22.65;;;10.38;;
58137;SDS011;43955;47.362;18.930;2024-03-22T02:40:57;22.37;;;9.80;;
58137;SDS011;43955;47.362;18.930;2024-03-22T02:43:23;26.40;;;12.27;;
58137;SDS011;43955;47.362;18.930;2024-03-22T02:45:49;21.05;;;10.55;;
58137;SDS011;43955;47.362;18.930;2024-03-22T02:48:16;23.58;;;11.68;;
58137;SDS011;43955;47.362;18.930;2024-03-22T02:50:42;24.23;;;11.43;;
58137;SDS011;43955;47.362;18.930;2024-03-22T02:53:08;23.15;;;10.75;;
58137;SDS011;43955;47.362;18.930;2024-03-22T02:55:38;28.02;;;11.77;;
58137;SDS011;43955;47.362;18.930;2024-03-22T02:58:05;20.52;;;11.45;;
58137;SDS011;43955;47.362;18.930;2024-03-22T03:00:37;21.30;;;10.40;;
58137;SDS011;43955;47.362;18.930;2024-03-22T03:03:05;25.67;;;11.45;;
58137;SDS011;43955;47.362;18.930;2024-03-22T03:05:32;24.58;;;12.05;;
58137;SDS011;43955;47.362;18.930;2024-03-22T03:07:58;28.98;;;11.30;;
58137;SDS011;43955;47.362;18.930;2024-03-22T03:10:25;24.83;;;12.18;;
58137;SDS011;43955;47.362;18.930;2024-03-22T03:12:54;25.08;;;12.07;;
58137;SDS011;43955;47.362;18.930;2024-03-22T03:15:20;23.90;;;11.93;;
58137;SDS011;43955;47.362;18.930;2024-03-22T03:17:47;21.95;;;11.52;;
58137;SDS011;43955;47.362;18.930;2024-03-22T03:20:13;65.72;;;15.48;;
58137;SDS011;43955;47.362;18.930;2024-03-22T03:22:39;22.23;;;11.23;;
58137;SDS011;43955;47.362;18.930;2024-03-22T03:25:07;31.83;;;12.82;;
58137;SDS011;43955;47.362;18.930;2024-03-22T03:27:34;31.62;;;12.37;;
58137;SDS011;43955;47.362;18.930;2024-03-22T03:30:00;23.10;;;12.20;;
58137;SDS011;43955;47.362;18.930;2024-03-22T03:32:27;22.95;;;10.73;;
58137;SDS011;43955;47.362;18.930;2024-03-22T03:34:54;24.98;;;11.48;;
58137;SDS011;43955;47.362;18.930;2024-03-22T03:37:20;22.55;;;11.95;;
58137;SDS011;43955;47.362;18.930;2024-03-22T03:39:49;24.33;;;11.50;;
58137;SDS011;43955;47.362;18.930;2024-03-22T03:42:15;24.55;;;10.65;;
58137;SDS011;43955;47.362;18.930;2024-03-22T03:44:41;22.20;;;11.60;;
58137;SDS011;43955;47.362;18.930;2024-03-22T03:47:08;22.17;;;11.00;;
58137;SDS011;43955;47.362;18.930;2024-03-22T03:49:35;19.98;;;11.35;;
58137;SDS011;43955;47.362;18.930;2024-03-22T03:52:02;21.27;;;10.95;;
58137;SDS011;43955;47.362;18.930;2024-03-22T03:54:28;24.63;;;11.98;;
58137;SDS011;43955;47.362;18.930;2024-03-22T03:56:55;22.75;;;11.90;;
58137;SDS011;43955;47.362;18.930;2024-03-22T03:59:21;24.58;;;11.07;;
58137;SDS011;43955;47.362;18.930;2024-03-22T04:01:48;24.20;;;11.50;;
58137;SDS011;43955;47.362;18.930;2024-03-22T04:04:15;24.50;;;12.13;;
58137;SDS011;43955;47.362;18.930;2024-03-22T04:06:43;19.95;;;10.93;;
58137;SDS011;43955;47.362;18.930;2024-03-22T04:09:10;24.98;;;11.23;;
58137;SDS011;43955;47.362;18.930;2024-03-22T04:11:36;23.35;;;11.35;;
58137;SDS011;43955;47.362;18.930;2024-03-22T04:14:03;21.17;;;10.50;;
58137;SDS011;43955;47.362;18.930;2024-03-22T04:16:31;20.15;;;11.45;;
58137;SDS011;43955;47.362;18.930;2024-03-22T04:18:58;20.15;;;9.48;;
58137;SDS011;43955;47.362;18.930;2024-03-22T04:21:24;19.00;;;10.25;;
58137;SDS011;43955;47.362;18.930;2024-03-22T04:23:52;19.50;;;10.63;;
58137;SDS011;43955;47.362;18.930;2024-03-22T04:26:20;20.37;;;10.25;;
58137;SDS011;43955;47.362;18.930;2024-03-22T04:28:47;18.80;;;10.90;;
58137;SDS011;43955;47.362;18.930;2024-03-22T04:31:14;24.95;;;10.23;;
58137;SDS011;43955;47.362;18.930;2024-03-22T04:33:41;21.12;;;10.65;;
58137;SDS011;43955;47.362;18.930;2024-03-22T04:36:08;24.17;;;10.75;;
58137;SDS011;43955;47.362;18.930;2024-03-22T04:38:37;19.67;;;9.95;;
58137;SDS011;43955;47.362;18.930;2024-03-22T04:41:04;20.10;;;9.95;;
58137;SDS011;43955;47.362;18.930;2024-03-22T04:43:30;21.15;;;10.30;;
58137;SDS011;43955;47.362;18.930;2024-03-22T04:45:56;21.65;;;10.52;;
58137;SDS011;43955;47.362;18.930;2024-03-22T04:48:23;19.65;;;10.40;;
58137;SDS011;43955;47.362;18.930;2024-03-22T04:50:51;19.58;;;9.95;;
58137;SDS011;43955;47.362;18.930;2024-03-22T04:53:18;19.37;;;9.70;;
58137;SDS011;43955;47.362;18.930;2024-03-22T04:55:47;16.08;;;9.43;;
58137;SDS011;43955;47.362;18.930;2024-03-22T04:58:14;19.83;;;9.73;;
58137;SDS011;43955;47.362;18.930;2024-03-22T05:00:42;21.08;;;10.15;;
58137;SDS011;43955;47.362;18.930;2024-03-22T05:03:09;20.48;;;9.70;;
58137;SDS011;43955;47.362;18.930;2024-03-22T05:05:36;17.27;;;8.95;;
58137;SDS011;43955;47.362;18.930;2024-03-22T05:08:03;20.02;;;9.65;;
58137;SDS011;43955;47.362;18.930;2024-03-22T05:10:30;19.55;;;9.57;;
58137;SDS011;43955;47.362;18.930;2024-03-22T05:12:57;14.87;;;9.10;;
58137;SDS011;43955;47.362;18.930;2024-03-22T05:15:23;19.75;;;10.05;;
58137;SDS011;43955;47.362;18.930;2024-03-22T05:17:52;21.52;;;10.25;;
58137;SDS011;43955;47.362;18.930;2024-03-22T05:20:19;17.55;;;9.77;;
58137;SDS011;43955;47.362;18.930;2024-03-22T05:22:46;18.90;;;10.20;;
58137;SDS011;43955;47.362;18.930;2024-03-22T05:25:14;22.48;;;10.13;;
58137;SDS011;43955;47.362;18.930;2024-03-22T05:27:42;26.62;;;11.02;;
58137;SDS011;43955;47.362;18.930;2024-03-22T05:30:09;19.52;;;9.70;;
58137;SDS011;43955;47.362;18.930;2024-03-22T05:32:38;21.67;;;10.20;;
58137;SDS011;43955;47.362;18.930;2024-03-22T05:35:06;18.42;;;10.27;;
58137;SDS011;43955;47.362;18.930;2024-03-22T05:37:33;18.70;;;10.27;;
58137;SDS011;43955;47.362;18.930;2024-03-22T05:40:01;17.33;;;9.73;;
58137;SDS011;43955;47.362;18.930;2024-03-22T05:42:29;19.85;;;11.23;;
58137;SDS011;43955;47.362;18.930;2024-03-22T05:44:55;19.95;;;10.48;;
58137;SDS011;43955;47.362;18.930;2024-03-22T05:47:22;20.33;;;10.18;;
58137;SDS011;43955;47.362;18.930;2024-03-22T05:49:48;22.80;;;11.77;;
58137;SDS011;43955;47.362;18.930;2024-03-22T05:52:14;26.02;;;11.15;;
58137;SDS011;43955;47.362;18.930;2024-03-22T05:54:43;20.33;;;9.95;;
58137;SDS011;43955;47.362;18.930;2024-03-22T05:57:09;29.37;;;10.80;;
58137;SDS011;43955;47.362;18.930;2024-03-22T05:59:35;20.88;;;10.02;;
58137;SDS011;43955;47.362;18.930;2024-03-22T06:02:02;20.23;;;9.82;;
58137;SDS011;43955;47.362;18.930;2024-03-22T06:04:29;22.52;;;10.68;;
58137;SDS011;43955;47.362;18.930;2024-03-22T06:06:56;19.42;;;10.43;;
58137;SDS011;43955;47.362;18.930;2024-03-22T06:09:26;24.08;;;11.27;;
58137;SDS011;43955;47.362;18.930;2024-03-22T06:12:12;24.05;;;10.90;;
58137;SDS011;43955;47.362;18.930;2024-03-22T06:14:39;22.17;;;11.70;;
58137;SDS011;43955;47.362;18.930;2024-03-22T06:17:09;23.08;;;11.88;;
58137;SDS011;43955;47.362;18.930;2024-03-22T06:19:36;19.02;;;10.73;;
58137;SDS011;43955;47.362;18.930;2024-03-22T06:22:02;20.62;;;10.05;;
58137;SDS011;43955;47.362;18.930;2024-03-22T06:24:29;21.00;;;11.12;;
58137;SDS011;43955;47.362;18.930;2024-03-22T06:26:55;23.45;;;10.63;;
58137;SDS011;43955;47.362;18.930;2024-03-22T06:29:21;22.17;;;10.77;;
58137;SDS011;43955;47.362;18.930;2024-03-22T06:31:49;19.95;;;10.43;;
58137;SDS011;43955;47.362;18.930;2024-03-22T06:34:16;21.42;;;10.48;;
58137;SDS011;43955;47.362;18.930;2024-03-22T06:36:42;31.70;;;15.63;;
58137;SDS011;43955;47.362;18.930;2024-03-22T06:39:08;22.37;;;10.90;;
58137;SDS011;43955;47.362;18.930;2024-03-22T06:41:36;22.85;;;10.80;;
58137;SDS011;43955;47.362;18.930;2024-03-22T06:44:05;20.75;;;10.77;;
58137;SDS011;43955;47.362;18.930;2024-03-22T06:46:32;20.30;;;10.35;;
58137;SDS011;43955;47.362;18.930;2024-03-22T06:48:59;21.52;;;10.30;;
58137;SDS011;43955;47.362;18.930;2024-03-22T06:51:25;34.72;;;11.70;;
58137;SDS011;43955;47.362;18.930;2024-03-22T06:53:51;27.92;;;12.20;;
58137;SDS011;43955;47.362;18.930;2024-03-22T06:56:18;21.85;;;11.20;;
58137;SDS011;43955;47.362;18.930;2024-03-22T06:58:44;21.55;;;11.20;;
58137;SDS011;43955;47.362;18.930;2024-03-22T07:01:11;19.25;;;11.25;;
58137;SDS011;43955;47.362;18.930;2024-03-22T07:03:39;36.60;;;12.85;;
58137;SDS011;43955;47.362;18.930;2024-03-22T07:06:05;20.83;;;11.25;;
58137;SDS011;43955;47.362;18.930;2024-03-22T07:08:33;60.08;;;16.20;;
58137;SDS011;43955;47.362;18.930;2024-03-22T07:11:04;41.53;;;13.35;;
58137;SDS011;43955;47.362;18.930;2024-03-22T07:13:31;27.15;;;11.85;;
58137;SDS011;43955;47.362;18.930;2024-03-22T07:15:57;23.73;;;10.98;;
58137;SDS011;43955;47.362;18.930;2024-03-22T07:18:24;40.58;;;12.77;;
58137;SDS011;43955;47.362;18.930;2024-03-22T07:20:50;23.67;;;10.93;;
58137;SDS011;43955;47.362;18.930;2024-03-22T07:23:17;18.95;;;10.93;;
58137;SDS011;43955;47.362;18.930;2024-03-22T07:25:43;23.50;;;11.32;;
58137;SDS011;43955;47.362;18.930;2024-03-22T07:28:11;19.77;;;11.68;;
58137;SDS011;43955;47.362;18.930;2024-03-22T07:30:38;20.23;;;10.30;;
58137;SDS011;43955;47.362;18.930;2024-03-22T07:33:04;20.25;;;10.73;;
58137;SDS011;43955;47.362;18.930;2024-03-22T07:35:30;20.48;;;11.23;;
58137;SDS011;43955;47.362;18.930;2024-03-22T07:37:56;19.40;;;11.50;;
58137;SDS011;43955;47.362;18.930;2024-03-22T07:40:24;20.37;;;11.20;;
58137;SDS011;43955;47.362;18.930;2024-03-22T07:42:50;20.00;;;11.05;;
58137;SDS011;43955;47.362;18.930;2024-03-22T07:45:16;18.67;;;10.82;;
58137;SDS011;43955;47.362;18.930;2024-03-22T07:47:43;19.55;;;10.88;;
58137;SDS011;43955;47.362;18.930;2024-03-22T07:50:11;17.45;;;10.07;;
58137;SDS011;43955;47.362;18.930;2024-03-22T07:52:37;21.05;;;11.80;;
58137;SDS011;43955;47.362;18.930;2024-03-22T07:55:04;18.67;;;11.12;;
58137;SDS011;43955;47.362;18.930;2024-03-22T07:57:31;21.98;;;11.02;;
58137;SDS011;43955;47.362;18.930;2024-03-22T07:59:57;21.25;;;10.93;;
58137;SDS011;43955;47.362;18.930;2024-03-22T08:02:24;17.27;;;10.52;;
58137;SDS011;43955;47.362;18.930;2024-03-22T08:04:50;19.23;;;10.40;;
58137;SDS011;43955;47.362;18.930;2024-03-22T08:07:16;21.77;;;10.68;;
58137;SDS011;43955;47.362;18.930;2024-03-22T08:09:43;19.17;;;11.35;;
58137;SDS011;43955;47.362;18.930;2024-03-22T08:12:09;18.35;;;11.00;;
58137;SDS011;43955;47.362;18.930;2024-03-22T08:14:36;24.37;;;11.05;;
58137;SDS011;43955;47.362;18.930;2024-03-22T08:17:02;17.70;;;10.23;;
58137;SDS011;43955;47.362;18.930;2024-03-22T08:19:30;22.05;;;12.55;;
58137;SDS011;43955;47.362;18.930;2024-03-22T08:21:58;32.55;;;13.05;;
58137;SDS011;43955;47.362;18.930;2024-03-22T08:24:25;29.75;;;12.45;;
58137;SDS011;43955;47.362;18.930;2024-03-22T08:26:51;26.33;;;12.40;;
58137;SDS011;43955;47.362;18.930;2024-03-22T08:29:18;20.23;;;10.80;;
58137;SDS011;43955;47.362;18.930;2024-03-22T08:31:44;26.42;;;12.20;;
58137;SDS011;43955;47.362;18.930;2024-03-22T08:34:11;30.05;;;11.88;;
58137;SDS011;43955;47.362;18.930;2024-03-22T08:36:37;35.97;;;13.10;;
58137;SDS011;43955;47.362;18.930;2024-03-22T08:39:04;25.02;;;11.18;;
58137;SDS011;43955;47.362;18.930;2024-03-22T08:41:31;35.22;;;13.30;;
58137;SDS011;43955;47.362;18.930;2024-03-22T08:43:58;22.80;;;11.38;;
58137;SDS011;43955;47.362;18.930;2024-03-22T08:46:27;22.23;;;11.50;;
58137;SDS011;43955;47.362;18.930;2024-03-22T08:48:55;24.73;;;11.02;;
58137;SDS011;43955;47.362;18.930;2024-03-22T08:51:21;34.65;;;14.73;;
58137;SDS011;43955;47.362;18.930;2024-03-22T08:53:48;25.90;;;14.10;;
58137;SDS011;43955;47.362;18.930;2024-03-22T08:56:15;21.23;;;11.82;;
58137;SDS011;43955;47.362;18.930;2024-03-22T08:58:42;24.30;;;11.95;;
58137;SDS011;43955;47.362;18.930;2024-03-22T09:01:12;21.80;;;11.12;;
58137;SDS011;43955;47.362;18.930;2024-03-22T09:03:39;20.73;;;10.95;;
58137;SDS011;43955;47.362;18.930;2024-03-22T09:06:05;18.48;;;10.52;;
58137;SDS011;43955;47.362;18.930;2024-03-22T09:08:32;21.65;;;11.05;;
58137;SDS011;43955;47.362;18.930;2024-03-22T09:10:59;21.52;;;12.15;;
58137;SDS011;43955;47.362;18.930;2024-03-22T09:13:26;20.75;;;11.40;;
58137;SDS011;43955;47.362;18.930;2024-03-22T09:15:56;23.83;;;12.48;;
58137;SDS011;43955;47.362;18.930;2024-03-22T09:18:23;32.70;;;11.68;;
58137;SDS011;43955;47.362;18.930;2024-03-22T09:20:50;20.58;;;11.48;;
58137;SDS011;43955;47.362;18.930;2024-03-22T09:23:20;24.12;;;12.00;;
58137;SDS011;43955;47.362;18.930;2024-03-22T09:25:46;20.30;;;12.27;;
58137;SDS011;43955;47.362;18.930;2024-03-22T09:28:13;20.90;;;11.45;;
58137;SDS011;43955;47.362;18.930;2024-03-22T09:30:40;21.42;;;11.57;;
58137;SDS011;43955;47.362;18.930;2024-03-22T09:33:06;23.45;;;11.73;;
58137;SDS011;43955;47.362;18.930;2024-03-22T09:35:36;26.50;;;12.68;;
58137;SDS011;43955;47.362;18.930;2024-03-22T09:38:04;20.83;;;12.25;;
58137;SDS011;43955;47.362;18.930;2024-03-22T09:40:30;25.08;;;12.55;;
58137;SDS011;43955;47.362;18.930;2024-03-22T09:43:01;26.37;;;11.23;;
58137;SDS011;43955;47.362;18.930;2024-03-22T09:45:31;18.08;;;11.45;;
58137;SDS011;43955;47.362;18.930;2024-03-22T09:47:58;23.90;;;11.63;;
58137;SDS011;43955;47.362;18.930;2024-03-22T09:50:25;21.52;;;11.12;;
58137;SDS011;43955;47.362;18.930;2024-03-22T09:52:52;18.52;;;11.85;;
58137;SDS011;43955;47.362;18.930;2024-03-22T09:55:21;23.62;;;11.75;;
58137;SDS011;43955;47.362;18.930;2024-03-22T09:57:49;19.50;;;10.50;;
58137;SDS011;43955;47.362;18.930;2024-03-22T10:00:18;22.05;;;12.20;;
58137;SDS011;43955;47.362;18.930;2024-03-22T10:02:53;16.65;;;10.60;;
58137;SDS011;43955;47.362;18.930;2024-03-22T10:05:19;22.30;;;11.60;;
58137;SDS011;43955;47.362;18.930;2024-03-22T10:07:46;19.87;;;10.95;;
58137;SDS011;43955;47.362;18.930;2024-03-22T10:10:12;22.77;;;11.88;;
58137;SDS011;43955;47.362;18.930;2024-03-22T10:12:41;20.05;;;11.73;;
58137;SDS011;43955;47.362;18.930;2024-03-22T10:15:08;25.48;;;12.57;;
58137;SDS011;43955;47.362;18.930;2024-03-22T10:17:35;17.87;;;11.20;;
58137;SDS011;43955;47.362;18.930;2024-03-22T10:20:01;21.62;;;11.60;;
58137;SDS011;43955;47.362;18.930;2024-03-22T10:22:33;19.35;;;11.65;;
58137;SDS011;43955;47.362;18.930;2024-03-22T10:25:04;20.92;;;11.98;;
58137;SDS011;43955;47.362;18.930;2024-03-22T10:27:33;27.48;;;15.25;;
58137;SDS011;43955;47.362;18.930;2024-03-22T10:29:59;22.17;;;13.70;;
58137;SDS011;43955;47.362;18.930;2024-03-22T10:32:29;18.15;;;10.80;;
58137;SDS011;43955;47.362;18.930;2024-03-22T10:34:56;19.55;;;11.05;;
58137;SDS011;43955;47.362;18.930;2024-03-22T10:37:23;14.82;;;8.55;;
58137;SDS011;43955;47.362;18.930;2024-03-22T10:39:51;16.48;;;9.02;;
58137;SDS011;43955;47.362;18.930;2024-03-22T10:42:19;13.85;;;9.25;;
58137;SDS011;43955;47.362;18.930;2024-03-22T10:44:46;15.55;;;8.48;;
58137;SDS011;43955;47.362;18.930;2024-03-22T10:47:12;19.98;;;8.45;;
58137;SDS011;43955;47.362;18.930;2024-03-22T10:49:41;11.35;;;7.22;;
58137;SDS011;43955;47.362;18.930;2024-03-22T10:52:08;17.12;;;8.57;;
58137;SDS011;43955;47.362;18.930;2024-03-22T10:54:39;14.57;;;8.43;;
58137;SDS011;43955;47.362;18.930;2024-03-22T10:57:11;14.52;;;7.57;;
58137;SDS011;43955;47.362;18.930;2024-03-22T10:59:38;14.48;;;8.10;;
58137;SDS011;43955;47.362;18.930;2024-03-22T11:02:11;15.73;;;7.97;;
58137;SDS011;43955;47.362;18.930;2024-03-22T11:04:39;13.43;;;8.18;;
58137;SDS011;43955;47.362;18.930;2024-03-22T11:07:05;16.20;;;9.10;;
58137;SDS011;43955;47.362;18.930;2024-03-22T11:09:39;23.53;;;9.90;;
58137;SDS011;43955;47.362;18.930;2024-03-22T11:12:05;15.02;;;8.98;;
58137;SDS011;43955;47.362;18.930;2024-03-22T11:14:32;16.50;;;9.23;;
58137;SDS011;43955;47.362;18.930;2024-03-22T11:16:58;54.72;;;11.38;;
58137;SDS011;43955;47.362;18.930;2024-03-22T11:19:25;17.30;;;8.82;;
58137;SDS011;43955;47.362;18.930;2024-03-22T11:21:51;16.95;;;8.15;;
58137;SDS011;43955;47.362;18.930;2024-03-22T11:24:18;11.95;;;6.40;;
58137;SDS011;43955;47.362;18.930;2024-03-22T11:26:44;10.57;;;6.40;;
58137;SDS011;43955;47.362;18.930;2024-03-22T11:29:14;13.95;;;6.78;;
58137;SDS011;43955;47.362;18.930;2024-03-22T11:31:40;8.23;;;4.00;;
58137;SDS011;43955;47.362;18.930;2024-03-22T11:34:06;5.93;;;2.10;;
58137;SDS011;43955;47.362;18.930;2024-03-22T11:36:35;5.75;;;1.92;;
58137;SDS011;43955;47.362;18.930;2024-03-22T11:39:01;7.65;;;2.70;;
58137;SDS011;43955;47.362;18.930;2024-03-22T11:41:29;5.57;;;2.97;;
58137;SDS011;43955;47.362;18.930;2024-03-22T11:43:57;15.55;;;4.07;;
58137;SDS011;43955;47.362;18.930;2024-03-22T11:46:25;7.97;;;4.53;;
58137;SDS011;43955;47.362;18.930;2024-03-22T11:48:53;8.48;;;4.95;;
58137;SDS011;43955;47.362;18.930;2024-03-22T11:51:19;11.93;;;4.55;;
58137;SDS011;43955;47.362;18.930;2024-03-22T11:53:52;12.32;;;4.85;;
58137;SDS011;43955;47.362;18.930;2024-03-22T11:56:21;10.43;;;4.72;;
58137;SDS011;43955;47.362;18.930;2024-03-22T11:58:49;9.35;;;5.03;;
58137;SDS011;43955;47.362;18.930;2024-03-22T12:03:50;14.27;;;7.07;;
58137;SDS011;43955;47.362;18.930;2024-03-22T12:06:16;10.93;;;5.97;;
58137;SDS011;43955;47.362;18.930;2024-03-22T12:08:44;9.43;;;5.80;;
58137;SDS011;43955;47.362;18.930;2024-03-22T12:11:11;10.48;;;5.93;;
58137;SDS011;43955;47.362;18.930;2024-03-22T12:13:38;10.35;;;6.03;;
58137;SDS011;43955;47.362;18.930;2024-03-22T12:16:04;11.43;;;6.37;;
58137;SDS011;43955;47.362;18.930;2024-03-22T12:18:31;15.25;;;6.43;;
58137;SDS011;43955;47.362;18.930;2024-03-22T12:20:57;11.60;;;6.32;;
58137;SDS011;43955;47.362;18.930;2024-03-22T12:23:23;12.45;;;6.15;;
58137;SDS011;43955;47.362;18.930;2024-03-22T12:25:50;12.75;;;7.00;;
58137;SDS011;43955;47.362;18.930;2024-03-22T12:28:20;18.45;;;8.02;;
58137;SDS011;43955;47.362;18.930;2024-03-22T12:30:50;10.98;;;6.45;;
58137;SDS011;43955;47.362;18.930;2024-03-22T12:33:16;15.27;;;6.28;;
58137;SDS011;43955;47.362;18.930;2024-03-22T12:35:43;11.35;;;6.53;;
58137;SDS011;43955;47.362;18.930;2024-03-22T12:38:09;12.30;;;5.93;;
58137;SDS011;43955;47.362;18.930;2024-03-22T12:40:38;10.82;;;6.15;;
58137;SDS011;43955;47.362;18.930;2024-03-22T12:43:04;17.40;;;7.00;;
58137;SDS011;43955;47.362;18.930;2024-03-22T12:45:31;12.23;;;5.70;;
58137;SDS011;43955;47.362;18.930;2024-03-22T12:47:58;11.95;;;6.12;;
58137;SDS011;43955;47.362;18.930;2024-03-22T12:50:25;16.10;;;6.40;;
58137;SDS011;43955;47.362;18.930;2024-03-22T12:52:52;11.80;;;6.12;;
58137;SDS011;43955;47.362;18.930;2024-03-22T12:55:18;12.25;;;5.45;;
58137;SDS011;43955;47.362;18.930;2024-03-22T12:57:45;12.23;;;6.07;;
58137;SDS011;43955;47.362;18.930;2024-03-22T13:00:12;25.35;;;6.93;;
58137;SDS011;43955;47.362;18.930;2024-03-22T13:02:39;9.63;;;5.62;;
58137;SDS011;43955;47.362;18.930;2024-03-22T13:05:07;13.38;;;6.03;;
58137;SDS011;43955;47.362;18.930;2024-03-22T13:07:34;9.30;;;5.70;;
58137;SDS011;43955;47.362;18.930;2024-03-22T13:10:07;10.83;;;6.07;;
58137;SDS011;43955;47.362;18.930;2024-03-22T13:12:34;20.50;;;8.70;;
58137;SDS011;43955;47.362;18.930;2024-03-22T13:15:01;12.82;;;7.22;;
58137;SDS011;43955;47.362;18.930;2024-03-22T13:17:30;11.05;;;6.20;;
58137;SDS011;43955;47.362;18.930;2024-03-22T13:19:56;9.48;;;5.32;;
58137;SDS011;43955;47.362;18.930;2024-03-22T13:22:22;9.40;;;5.95;;
58137;SDS011;43955;47.362;18.930;2024-03-22T13:24:49;10.10;;;5.95;;
58137;SDS011;43955;47.362;18.930;2024-03-22T13:27:16;9.63;;;5.75;;
58137;SDS011;43955;47.362;18.930;2024-03-22T13:29:43;10.38;;;5.68;;
58137;SDS011;43955;47.362;18.930;2024-03-22T13:32:09;39.55;;;7.40;;
58137;SDS011;43955;47.362;18.930;2024-03-22T13:34:36;12.13;;;6.32;;
58137;SDS011;43955;47.362;18.930;2024-03-22T13:37:03;14.07;;;6.95;;
58137;SDS011;43955;47.362;18.930;2024-03-22T13:39:29;11.30;;;6.10;;
58137;SDS011;43955;47.362;18.930;2024-03-22T13:41:56;11.73;;;5.60;;
58137;SDS011;43955;47.362;18.930;2024-03-22T13:44:22;11.95;;;6.97;;
58137;SDS011;43955;47.362;18.930;2024-03-22T13:46:49;11.85;;;6.10;;
58137;SDS011;43955;47.362;18.930;2024-03-22T13:49:16;15.20;;;5.30;;
58137;SDS011;43955;47.362;18.930;2024-03-22T13:51:44;10.95;;;5.10;;
58137;SDS011;43955;47.362;18.930;2024-03-22T13:54:11;10.57;;;7.07;;
58137;SDS011;43955;47.362;18.930;2024-03-22T13:56:38;14.80;;;6.68;;
58137;SDS011;43955;47.362;18.930;2024-03-22T13:59:04;30.00;;;7.87;;
58137;SDS011;43955;47.362;18.930;2024-03-22T14:01:34;10.02;;;6.05;;
58137;SDS011;43955;47.362;18.930;2024-03-22T14:04:01;10.18;;;6.68;;
58137;SDS011;43955;47.362;18.930;2024-03-22T14:06:27;10.07;;;5.68;;
58137;SDS011;43955;47.362;18.930;2024-03-22T14:08:53;28.33;;;7.50;;
58137;SDS011;43955;47.362;18.930;2024-03-22T14:11:28;13.05;;;6.68;;
58137;SDS011;43955;47.362;18.930;2024-03-22T14:13:59;9.13;;;5.62;;
58137;SDS011;43955;47.362;18.930;2024-03-22T14:16:25;10.57;;;5.50;;